Time;durP1;ratioP1;P1;durP2;ratioP2;P2;SDS_P1;SDS_P2;PMS_P1;PMS_P2;Temp;Humidity;BMP_temperature;BMP_pressure;BME280_temperature;BME280_humidity;BME280_pressure;Samples;Min_cycle;Max_cycle;Signal;HPM_P1;HPM_P2
2021/01/09 00:00:26;;;;;;;;;;;;;;;6.63;61.80;100552.31;4966081;28;19960;-82
2021/01/09 00:02:53;;;;;;;;;;;;;;;6.35;62.72;100549.13;4975634;28;19921;-81
2021/01/09 00:05:19;;;;;;;;;;;;;;;6.21;63.28;100544.44;4978980;28;19926;-80
2021/01/09 00:07:46;;;;;;;;;;;;;;;6.46;62.14;100542.47;4949417;28;19922;-81
2021/01/09 00:10:12;;;;;;;;;;;;;;;6.24;62.54;100537.59;4979975;28;19976;-81
2021/01/09 00:12:40;;;;;;;;;;;;;;;6.56;61.74;100540.94;4961563;28;20359;-81
2021/01/09 00:15:10;;;;;;;;;;;;;;;6.29;62.35;100540.28;4971463;28;19922;-81
2021/01/09 00:17:37;;;;;;;;;;;;;;;6.46;61.68;100537.25;4956838;28;19964;-81
2021/01/09 00:20:13;;;;;;;;;;;;;;;6.34;61.82;100543.88;4980958;28;19972;-82
2021/01/09 00:22:40;;;;;;;;;;;;;;;6.58;61.14;100545.31;4984143;28;19921;-81
2021/01/09 00:25:07;;;;;;;;;;;;;;;6.66;61.00;100547.22;4986412;28;20020;-81
2021/01/09 00:27:35;;;;;;;;;;;;;;;6.59;61.08;100541.00;4968544;28;20315;-81
2021/01/09 00:30:05;;;;;;;;;;;;;;;6.49;61.49;100546.81;4963849;28;19936;-80
2021/01/09 00:32:33;;;;;;;;;;;;;;;6.29;61.64;100556.75;4970353;28;19926;-83
2021/01/09 00:34:59;;;;;;;;;;;;;;;6.31;61.67;100551.59;4986265;28;20008;-80
2021/01/09 00:37:26;;;;;;;;;;;;;;;6.26;62.39;100554.09;4963926;28;19925;-80
2021/01/09 00:39:53;;;;;;;;;;;;;;;6.41;61.48;100550.97;4971153;28;19976;-80
2021/01/09 00:42:20;;;;;;;;;;;;;;;6.56;61.05;100549.63;4967027;28;19968;-81
2021/01/09 00:44:46;;;;;;;;;;;;;;;6.06;62.66;100561.38;4983380;28;19922;-80
2021/01/09 00:47:13;;;;;;;;;;;;;;;6.13;62.64;100560.72;4965413;28;19963;-80
2021/01/09 00:49:40;;;;;;;;;;;;;;;6.20;62.27;100558.25;4967116;28;20428;-81
2021/01/09 00:52:06;;;;;;;;;;;;;;;6.11;62.32;100552.00;4955807;28;20416;-80
2021/01/09 00:54:32;;;;;;;;;;;;;;;6.13;62.38;100558.13;4965469;28;20361;-82
2021/01/09 00:56:59;;;;;;;;;;;;;;;6.44;61.63;100558.81;4963952;28;19982;-82
2021/01/09 00:59:25;;;;;;;;;;;;;;;5.97;62.54;100565.47;4967598;28;20008;-83
2021/01/09 01:01:56;;;;;;;;;;;;;;;6.27;62.37;100565.34;4951372;28;19928;-81
2021/01/09 01:04:23;;;;;;;;;;;;;;;6.24;61.94;100554.88;4978566;28;20417;-82
2021/01/09 01:06:49;;;;;;;;;;;;;;;6.41;61.72;100563.94;4972114;28;19953;-82
2021/01/09 01:09:16;;;;;;;;;;;;;;;6.45;61.78;100561.47;4985817;28;19949;-82
2021/01/09 01:11:42;;;;;;;;;;;;;;;6.36;62.02;100565.56;4961255;28;20331;-82
2021/01/09 01:14:08;;;;;;;;;;;;;;;5.93;63.02;100569.72;4970441;28;19956;-81
2021/01/09 01:16:35;;;;;;;;;;;;;;;5.65;64.69;100569.81;4972740;28;19922;-81
2021/01/09 01:19:03;;;;;;;;;;;;;;;5.95;64.10;100572.31;4968914;28;19926;-81
2021/01/09 01:21:33;;;;;;;;;;;;;;;6.26;62.16;100569.66;4969744;28;20441;-80
2021/01/09 01:23:59;;;;;;;;;;;;;;;6.45;61.98;100578.75;4987106;28;19955;-81
2021/01/09 01:26:25;;;;;;;;;;;;;;;6.17;62.53;100576.34;4966232;28;20009;-81
2021/01/09 01:28:52;;;;;;;;;;;;;;;5.68;64.17;100588.03;4969752;28;19921;-81
2021/01/09 01:31:21;;;;;;;;;;;;;;;6.07;62.89;100591.69;4967849;28;19929;-81
2021/01/09 01:33:50;;;;;;;;;;;;;;;6.33;62.50;100597.50;4954199;28;19929;-81
2021/01/09 01:36:17;;;;;;;;;;;;;;;6.67;61.47;100603.47;4969224;28;19970;-81
2021/01/09 01:38:43;;;;;;;;;;;;;;;6.69;61.16;100599.19;4978410;28;19945;-81
2021/01/09 01:41:10;;;;;;;;;;;;;;;6.36;62.43;100600.19;4987848;28;19922;-81
2021/01/09 01:43:37;;;;;;;;;;;;;;;6.29;62.23;100605.16;4955625;28;19929;-81
2021/01/09 01:46:04;;;;;;;;;;;;;;;6.50;61.99;100603.97;4973476;28;19926;-81
2021/01/09 01:48:32;;;;;;;;;;;;;;;6.30;62.48;100601.72;4976683;28;19922;-81
2021/01/09 01:51:00;;;;;;;;;;;;;;;6.65;61.66;100605.16;4987692;28;19929;-80
2021/01/09 01:53:27;;;;;;;;;;;;;;;6.66;61.05;100599.13;4980395;28;19950;-81
2021/01/09 01:55:53;;;;;;;;;;;;;;;6.32;62.16;100608.75;4987540;28;19922;-81
2021/01/09 01:58:19;;;;;;;;;;;;;;;6.38;61.91;100610.59;4967765;28;19928;-82
2021/01/09 02:00:47;;;;;;;;;;;;;;;6.78;60.79;100607.19;4974342;28;19926;-82
2021/01/09 02:03:17;;;;;;;;;;;;;;;6.54;61.46;100613.59;4967986;28;19925;-82
2021/01/09 02:06:06;;;;;;;;;;;;;;;5.87;63.77;100613.63;4978738;28;19922;-79
2021/01/09 02:08:39;;;;;;;;;;;;;;;5.91;63.84;100625.84;4962746;28;19922;-83
2021/01/09 02:11:07;;;;;;;;;;;;;;;6.31;62.58;100624.25;4985386;28;19986;-81
2021/01/09 02:13:41;;;;;;;;;;;;;;;5.88;63.66;100623.19;4961437;28;19972;-81
2021/01/09 02:16:08;;;;;;;;;;;;;;;5.90;63.60;100624.06;4986240;28;19926;-81
2021/01/09 02:18:36;;;;;;;;;;;;;;;5.89;63.73;100624.94;4947860;28;19947;-80
2021/01/09 02:21:10;;;;;;;;;;;;;;;6.07;63.01;100622.81;4982267;28;19932;-80
2021/01/09 02:23:37;;;;;;;;;;;;;;;6.25;62.72;100621.50;4979108;28;19997;-80
2021/01/09 02:26:04;;;;;;;;;;;;;;;6.11;63.04;100621.16;4982558;28;19921;-81
2021/01/09 02:28:30;;;;;;;;;;;;;;;6.45;62.05;100622.88;4991252;28;19928;-81
2021/01/09 02:30:59;;;;;;;;;;;;;;;6.32;62.15;100636.41;4976150;28;19932;-78
2021/01/09 02:33:27;;;;;;;;;;;;;;;6.53;62.07;100629.13;4956939;28;19921;-80
2021/01/09 02:35:54;;;;;;;;;;;;;;;6.57;61.33;100624.03;4985592;28;19925;-80
2021/01/09 02:38:20;;;;;;;;;;;;;;;5.76;63.84;100630.59;4971723;28;19929;-81
2021/01/09 02:40:47;;;;;;;;;;;;;;;6.43;61.73;100622.81;4987477;28;19961;-80
2021/01/09 02:43:13;;;;;;;;;;;;;;;6.43;61.28;100627.13;4985176;28;20371;-80
2021/01/09 02:45:40;;;;;;;;;;;;;;;6.46;61.61;100635.00;4964789;28;20435;-80
2021/01/09 02:48:07;;;;;;;;;;;;;;;6.58;60.99;100637.88;4990741;28;20561;-80
2021/01/09 02:50:33;;;;;;;;;;;;;;;6.66;60.56;100632.91;4980698;28;19930;-80
2021/01/09 02:52:59;;;;;;;;;;;;;;;6.70;60.72;100630.41;4989119;28;19937;-80
2021/01/09 02:55:26;;;;;;;;;;;;;;;6.52;61.20;100636.03;4969904;28;19921;-80
2021/01/09 02:57:52;;;;;;;;;;;;;;;6.67;60.67;100634.63;4992132;28;19932;-81
2021/01/09 03:00:19;;;;;;;;;;;;;;;6.50;61.09;100634.25;4992413;28;20347;-80
2021/01/09 03:02:45;;;;;;;;;;;;;;;6.46;61.29;100637.63;4952288;28;19972;-80
2021/01/09 03:05:12;;;;;;;;;;;;;;;6.72;60.58;100633.88;4959790;28;20250;-80
2021/01/09 03:07:39;;;;;;;;;;;;;;;6.64;60.69;100644.94;4964773;28;19925;-80
2021/01/09 03:10:05;;;;;;;;;;;;;;;6.76;60.64;100642.66;4992527;28;19991;-80
2021/01/09 03:12:31;;;;;;;;;;;;;;;6.73;60.18;100640.84;4969010;28;19961;-80
2021/01/09 03:14:58;;;;;;;;;;;;;;;6.80;60.28;100642.75;4984310;28;19936;-80
2021/01/09 03:17:25;;;;;;;;;;;;;;;6.76;60.00;100633.13;4980867;28;19922;-80
2021/01/09 03:19:51;;;;;;;;;;;;;;;6.89;59.71;100640.38;4968282;28;20019;-81
2021/01/09 03:22:17;;;;;;;;;;;;;;;6.70;60.44;100642.50;4965434;28;20296;-80
2021/01/09 03:24:44;;;;;;;;;;;;;;;6.79;60.24;100638.41;4967265;28;19936;-80
2021/01/09 03:27:10;;;;;;;;;;;;;;;6.57;60.50;100639.59;4970890;28;19922;-80
2021/01/09 03:29:37;;;;;;;;;;;;;;;6.62;60.22;100637.13;4985039;28;23736;-80
2021/01/09 03:32:05;;;;;;;;;;;;;;;6.38;61.10;100639.16;4973143;28;20672;-80
2021/01/09 03:34:31;;;;;;;;;;;;;;;6.33;61.47;100639.00;4971408;28;19921;-80
2021/01/09 03:36:57;;;;;;;;;;;;;;;6.56;60.42;100640.47;4971628;28;19945;-81
2021/01/09 03:39:23;;;;;;;;;;;;;;;6.16;61.90;100644.63;4969060;28;19922;-80
2021/01/09 03:41:49;;;;;;;;;;;;;;;5.90;62.45;100636.19;4983401;28;20288;-80
2021/01/09 03:44:16;;;;;;;;;;;;;;;6.00;62.29;100639.03;4966628;28;20013;-80
2021/01/09 03:46:42;;;;;;;;;;;;;;;6.02;62.15;100641.69;4956365;28;19976;-80
2021/01/09 03:49:08;;;;;;;;;;;;;;;5.89;62.02;100634.44;4980904;28;19926;-80
2021/01/09 03:51:34;;;;;;;;;;;;;;;6.22;61.09;100630.09;4968412;28;20008;-80
2021/01/09 03:54:01;;;;;;;;;;;;;;;5.78;62.25;100631.50;4977999;28;20025;-81
2021/01/09 03:56:28;;;;;;;;;;;;;;;5.90;61.85;100636.19;4969985;28;20355;-80
2021/01/09 03:58:54;;;;;;;;;;;;;;;5.75;61.81;100638.34;4977436;28;20589;-81
2021/01/09 04:01:20;;;;;;;;;;;;;;;5.96;61.59;100641.53;4986048;28;19922;-80
2021/01/09 04:03:47;;;;;;;;;;;;;;;5.89;61.40;100640.50;4982647;28;20399;-81
2021/01/09 04:06:13;;;;;;;;;;;;;;;5.85;61.61;100638.59;4982777;28;19926;-80
2021/01/09 04:08:40;;;;;;;;;;;;;;;5.88;61.54;100632.66;4964790;28;20020;-81
2021/01/09 04:11:06;;;;;;;;;;;;;;;5.82;61.43;100643.72;4987920;28;19933;-81
2021/01/09 04:13:32;;;;;;;;;;;;;;;5.76;61.39;100637.47;4982767;28;19932;-81
2021/01/09 04:16:01;;;;;;;;;;;;;;;5.84;61.04;100638.59;4971405;28;20395;-81
2021/01/09 04:18:29;;;;;;;;;;;;;;;5.50;62.09;100635.06;4969438;28;19925;-81
2021/01/09 04:20:56;;;;;;;;;;;;;;;5.51;62.14;100638.56;4970431;28;19921;-81
2021/01/09 04:23:22;;;;;;;;;;;;;;;5.08;63.00;100637.31;4958952;28;19932;-81
2021/01/09 04:25:49;;;;;;;;;;;;;;;5.13;63.11;100640.91;4980718;28;19921;-81
2021/01/09 04:28:15;;;;;;;;;;;;;;;5.09;62.73;100639.06;4973745;28;20001;-80
2021/01/09 04:30:41;;;;;;;;;;;;;;;4.93;63.39;100647.22;4949905;28;19940;-81
2021/01/09 04:33:07;;;;;;;;;;;;;;;5.17;62.54;100641.88;4982865;28;19941;-81
2021/01/09 04:35:33;;;;;;;;;;;;;;;4.68;63.99;100644.69;4958856;28;20301;-81
2021/01/09 04:38:00;;;;;;;;;;;;;;;4.58;64.61;100647.81;4985733;28;20285;-81
2021/01/09 04:40:26;;;;;;;;;;;;;;;4.76;63.47;100645.81;4966376;28;20416;-81
2021/01/09 04:42:53;;;;;;;;;;;;;;;4.87;62.81;100648.72;4953657;28;20882;-81
2021/01/09 04:45:19;;;;;;;;;;;;;;;4.50;64.36;100642.41;4967220;28;19945;-81
2021/01/09 04:47:48;;;;;;;;;;;;;;;4.58;64.00;100650.41;4983096;28;19949;-81
2021/01/09 04:50:15;;;;;;;;;;;;;;;4.46;64.13;100653.47;4977398;28;19922;-80
2021/01/09 04:52:41;;;;;;;;;;;;;;;4.17;65.22;100647.34;4973087;28;19925;-80
2021/01/09 04:55:08;;;;;;;;;;;;;;;3.48;68.44;100640.63;4966226;28;19938;-81
2021/01/09 04:57:34;;;;;;;;;;;;;;;3.45;69.00;100643.97;4983827;28;19921;-81
2021/01/09 05:00:03;;;;;;;;;;;;;;;4.03;66.59;100638.25;4970810;28;20339;-81
2021/01/09 05:02:29;;;;;;;;;;;;;;;4.13;66.50;100644.59;4976769;28;20001;-81
2021/01/09 05:04:56;;;;;;;;;;;;;;;4.58;64.82;100640.94;4970176;28;19922;-81
2021/01/09 05:07:22;;;;;;;;;;;;;;;3.87;67.16;100641.16;4965373;28;19965;-81
2021/01/09 05:09:48;;;;;;;;;;;;;;;4.41;65.35;100646.41;4989393;28;20013;-80
2021/01/09 05:12:16;;;;;;;;;;;;;;;4.43;65.47;100645.63;4961743;28;20022;-80
2021/01/09 05:14:42;;;;;;;;;;;;;;;4.41;64.96;100654.19;4981826;28;19948;-80
2021/01/09 05:17:08;;;;;;;;;;;;;;;4.19;66.03;100643.13;4970181;28;19926;-80
2021/01/09 05:19:36;;;;;;;;;;;;;;;3.89;67.33;100637.78;4950814;28;19941;-80
2021/01/09 05:22:02;;;;;;;;;;;;;;;3.71;68.41;100644.03;4952972;28;20314;-80
2021/01/09 05:24:29;;;;;;;;;;;;;;;3.70;68.48;100637.97;4979410;28;19982;-80
2021/01/09 05:26:55;;;;;;;;;;;;;;;3.92;67.47;100639.63;4969091;28;20264;-80
2021/01/09 05:29:21;;;;;;;;;;;;;;;3.79;67.59;100647.78;4964866;28;20017;-80
2021/01/09 05:31:49;;;;;;;;;;;;;;;3.89;66.45;100650.72;4965299;28;20045;-80
2021/01/09 05:34:15;;;;;;;;;;;;;;;3.80;67.45;100652.97;4951707;28;20330;-79
2021/01/09 05:36:41;;;;;;;;;;;;;;;4.03;66.70;100668.44;4982582;28;19925;-79
2021/01/09 05:39:08;;;;;;;;;;;;;;;3.08;70.23;100669.28;4971024;28;19941;-80
2021/01/09 05:41:39;;;;;;;;;;;;;;;4.10;66.63;100670.38;4965966;28;19922;-80
2021/01/09 05:44:06;;;;;;;;;;;;;;;3.97;66.39;100668.22;4976959;28;19929;-80
2021/01/09 05:46:33;;;;;;;;;;;;;;;4.06;65.72;100663.34;4980667;28;19925;-80
2021/01/09 05:49:01;;;;;;;;;;;;;;;4.16;65.67;100660.25;4966869;28;19933;-80
2021/01/09 05:51:31;;;;;;;;;;;;;;;3.98;66.04;100670.81;4979489;28;19932;-80
2021/01/09 05:53:57;;;;;;;;;;;;;;;3.87;66.03;100667.00;4967020;28;20052;-80
2021/01/09 05:56:24;;;;;;;;;;;;;;;4.23;65.32;100672.53;4969112;28;19929;-80
2021/01/09 05:58:51;;;;;;;;;;;;;;;4.30;64.85;100675.41;4981459;28;19972;-80
2021/01/09 06:01:27;;;;;;;;;;;;;;;4.22;64.62;100682.00;4983504;28;20365;-79
2021/01/09 06:04:02;;;;;;;;;;;;;;;4.29;64.24;100681.41;4986571;28;19926;-80
2021/01/09 06:06:39;;;;;;;;;;;;;;;4.05;64.96;100677.09;4979408;28;19976;-79
2021/01/09 06:09:07;;;;;;;;;;;;;;;3.80;65.20;100675.34;4973135;28;19922;-79
2021/01/09 06:11:40;;;;;;;;;;;;;;;3.91;65.04;100674.03;4979499;28;20281;-79
2021/01/09 06:14:10;;;;;;;;;;;;;;;4.04;64.27;100678.78;4976269;28;19965;-80
2021/01/09 06:16:37;;;;;;;;;;;;;;;3.91;64.23;100689.56;4984848;28;19965;-79
2021/01/09 06:19:04;;;;;;;;;;;;;;;4.00;64.17;100686.41;4990984;28;19922;-79
2021/01/09 06:21:31;;;;;;;;;;;;;;;3.95;64.50;100684.53;4955368;28;20372;-80
2021/01/09 06:23:59;;;;;;;;;;;;;;;3.99;64.04;100692.38;4982296;28;20272;-79
2021/01/09 06:26:26;;;;;;;;;;;;;;;3.84;64.52;100684.97;4985252;28;20012;-79
2021/01/09 06:28:57;;;;;;;;;;;;;;;3.81;64.42;100687.47;4982615;28;19925;-79
2021/01/09 06:31:25;;;;;;;;;;;;;;;3.67;65.05;100692.16;4966083;28;19928;-79
2021/01/09 06:33:52;;;;;;;;;;;;;;;3.88;64.33;100686.88;4958881;28;19927;-79
2021/01/09 06:36:20;;;;;;;;;;;;;;;4.09;63.70;100687.59;4986676;28;20300;-79
2021/01/09 06:38:48;;;;;;;;;;;;;;;3.69;65.03;100684.47;4962150;28;19980;-79
2021/01/09 06:41:16;;;;;;;;;;;;;;;3.68;65.48;100685.28;4988049;28;20319;-79
2021/01/09 06:43:44;;;;;;;;;;;;;;;3.64;65.74;100686.88;4987148;28;19925;-79
2021/01/09 06:46:25;;;;;;;;;;;;;;;3.83;64.79;100685.81;4986019;28;19936;-79
2021/01/09 06:48:52;;;;;;;;;;;;;;;3.78;64.63;100690.84;4977078;28;19922;-79
2021/01/09 06:51:37;;;;;;;;;;;;;;;3.95;64.15;100688.81;4986422;28;19937;-79
2021/01/09 06:54:16;;;;;;;;;;;;;;;3.91;63.86;100690.44;4985009;28;19978;-79
2021/01/09 06:56:43;;;;;;;;;;;;;;;4.12;63.09;100690.31;4980492;28;19926;-79
2021/01/09 06:59:31;;;;;;;;;;;;;;;4.01;63.35;100691.63;4986693;28;19937;-79
2021/01/09 07:02:12;;;;;;;;;;;;;;;3.94;63.63;100689.66;4966708;28;19933;-79
2021/01/09 07:04:48;;;;;;;;;;;;;;;3.80;63.89;100691.75;4983018;28;19933;-79
2021/01/09 07:07:33;;;;;;;;;;;;;;;4.03;63.27;100694.28;4985305;28;19922;-79
2021/01/09 07:10:02;;;;;;;;;;;;;;;3.75;63.38;100698.47;4987952;28;19928;-79
2021/01/09 07:12:29;;;;;;;;;;;;;;;3.95;62.86;100705.22;4963884;28;19926;-79
2021/01/09 07:15:03;;;;;;;;;;;;;;;3.94;62.40;100703.44;4992833;28;19943;-79
2021/01/09 07:17:31;;;;;;;;;;;;;;;3.91;62.51;100699.88;4980251;28;19932;-79
2021/01/09 07:20:01;;;;;;;;;;;;;;;3.97;62.23;100699.22;4988275;28;19980;-79
2021/01/09 07:22:30;;;;;;;;;;;;;;;3.91;62.18;100694.72;4984986;28;20321;-79
2021/01/09 07:24:57;;;;;;;;;;;;;;;4.08;61.46;100693.59;4969911;28;19921;-79
2021/01/09 07:27:31;;;;;;;;;;;;;;;3.72;62.26;100692.31;4957986;28;19941;-79
2021/01/09 07:29:58;;;;;;;;;;;;;;;3.56;63.06;100697.72;4986258;28;19932;-78
2021/01/09 07:32:34;;;;;;;;;;;;;;;3.65;62.82;100701.53;4948044;28;19921;-79
2021/01/09 07:35:05;;;;;;;;;;;;;;;3.64;62.71;100710.13;4984983;28;20403;-79
2021/01/09 07:37:34;;;;;;;;;;;;;;;3.57;62.75;100710.72;4968697;28;19929;-79
2021/01/09 07:40:10;;;;;;;;;;;;;;;3.34;63.70;100706.41;4988079;28;19922;-79
2021/01/09 07:42:36;;;;;;;;;;;;;;;3.25;63.49;100706.94;4978767;28;19926;-79
2021/01/09 07:45:07;;;;;;;;;;;;;;;3.50;62.79;100709.59;4987488;28;20407;-78
2021/01/09 07:47:38;;;;;;;;;;;;;;;3.27;63.57;100718.19;4966449;28;19941;-79
2021/01/09 07:50:05;;;;;;;;;;;;;;;3.37;63.18;100716.84;4988488;28;20021;-79
2021/01/09 07:52:33;;;;;;;;;;;;;;;3.35;62.91;100726.25;4967063;28;20356;-79
2021/01/09 07:55:00;;;;;;;;;;;;;;;3.30;62.69;100712.28;4973373;28;19964;-79
2021/01/09 07:57:27;;;;;;;;;;;;;;;3.25;62.85;100716.41;4966945;28;19921;-79
2021/01/09 07:59:54;;;;;;;;;;;;;;;3.16;63.07;100723.78;4966639;28;19957;-79
2021/01/09 08:02:23;;;;;;;;;;;;;;;3.15;62.72;100728.06;4969765;28;19926;-79
2021/01/09 08:04:49;;;;;;;;;;;;;;;3.16;62.74;100736.69;4974092;28;20028;-79
2021/01/09 08:07:16;;;;;;;;;;;;;;;3.21;62.57;100725.75;4975994;28;19921;-79
2021/01/09 08:09:45;;;;;;;;;;;;;;;3.28;62.30;100721.66;4985060;28;19930;-78
2021/01/09 08:12:11;;;;;;;;;;;;;;;3.19;62.73;100721.31;4987416;28;20017;-78
2021/01/09 08:14:37;;;;;;;;;;;;;;;3.30;62.40;100725.19;4949663;28;24272;-79
2021/01/09 08:17:10;;;;;;;;;;;;;;;3.18;62.43;100733.34;4972311;28;19972;-79
2021/01/09 08:19:37;;;;;;;;;;;;;;;3.16;62.61;100728.97;4966092;28;20035;-79
2021/01/09 08:22:04;;;;;;;;;;;;;;;3.25;62.28;100737.06;4983358;28;19944;-79
2021/01/09 08:24:31;;;;;;;;;;;;;;;3.25;62.53;100742.22;4981923;28;19922;-79
2021/01/09 08:26:58;;;;;;;;;;;;;;;3.45;62.09;100746.44;4971585;28;19926;-79
2021/01/09 08:29:24;;;;;;;;;;;;;;;3.07;62.29;100751.00;4980925;28;19937;-79
2021/01/09 08:31:52;;;;;;;;;;;;;;;3.21;62.09;100745.50;4984350;28;19931;-78
2021/01/09 08:34:18;;;;;;;;;;;;;;;3.18;61.96;100746.25;4957676;28;19930;-79
2021/01/09 08:36:46;;;;;;;;;;;;;;;3.30;62.06;100746.75;4971086;28;19930;-79
2021/01/09 08:39:14;;;;;;;;;;;;;;;3.35;61.98;100752.97;4985141;28;19926;-78
2021/01/09 08:41:41;;;;;;;;;;;;;;;3.46;61.80;100750.75;4987496;28;19922;-79
2021/01/09 08:44:11;;;;;;;;;;;;;;;3.59;61.73;100744.38;4980053;28;19964;-79
2021/01/09 08:46:41;;;;;;;;;;;;;;;3.46;62.09;100743.00;4964112;28;20448;-79
2021/01/09 08:49:21;;;;;;;;;;;;;;;3.56;62.60;100737.38;4975704;28;19929;-79
2021/01/09 08:51:50;;;;;;;;;;;;;;;3.74;62.31;100744.94;4982295;28;19932;-77
2021/01/09 08:54:19;;;;;;;;;;;;;;;3.39;62.69;100749.66;4964827;28;19922;-78
2021/01/09 08:56:45;;;;;;;;;;;;;;;3.45;63.12;100747.28;4965288;28;19926;-78
2021/01/09 08:59:13;;;;;;;;;;;;;;;3.50;62.98;100740.59;4969462;28;19926;-78
2021/01/09 09:01:46;;;;;;;;;;;;;;;3.59;62.57;100752.13;4984617;28;19964;-78
2021/01/09 09:04:16;;;;;;;;;;;;;;;4.10;61.10;100748.84;4971924;28;19921;-77
2021/01/09 09:06:44;;;;;;;;;;;;;;;4.12;61.01;100756.66;4978282;28;19925;-78
2021/01/09 09:09:14;;;;;;;;;;;;;;;4.00;61.32;100749.31;4958533;28;19922;-78
2021/01/09 09:11:41;;;;;;;;;;;;;;;4.28;61.02;100749.47;4945162;28;19922;-77
2021/01/09 09:14:09;;;;;;;;;;;;;;;4.36;60.99;100749.75;4971332;28;19921;-78
2021/01/09 09:16:37;;;;;;;;;;;;;;;4.45;60.89;100744.00;4973620;28;20293;-78
2021/01/09 09:19:10;;;;;;;;;;;;;;;4.53;61.16;100745.13;4978786;28;20357;-78
2021/01/09 09:21:40;;;;;;;;;;;;;;;5.02;62.73;100745.00;4979448;28;19932;-78
2021/01/09 09:24:07;;;;;;;;;;;;;;;6.69;67.83;100742.88;4987920;28;19952;-78
2021/01/09 09:26:35;;;;;;;;;;;;;;;8.96;70.54;100748.47;4982464;28;20049;-79
2021/01/09 09:29:01;;;;;;;;;;;;;;;11.24;71.56;100749.34;4988576;28;19929;-80
2021/01/09 09:31:27;;;;;;;;;;;;;;;13.23;69.44;100749.94;4957032;28;19985;-80
2021/01/09 09:34:01;;;;;;;;;;;;;;;14.87;66.26;100743.97;4981593;28;19944;-81
2021/01/09 09:36:28;;;;;;;;;;;;;;;15.95;56.91;100735.81;4958151;28;19921;-80
2021/01/09 09:38:55;;;;;;;;;;;;;;;16.98;55.85;100743.09;4974702;28;20293;-81
2021/01/09 09:41:22;;;;;;;;;;;;;;;18.20;54.15;100744.28;4968400;28;20021;-81
2021/01/09 09:43:58;;;;;;;;;;;;;;;19.43;50.42;100749.25;4983514;28;19929;-82
2021/01/09 09:46:25;;;;;;;;;;;;;;;20.45;45.74;100749.88;4978429;28;19926;-82
2021/01/09 09:48:52;;;;;;;;;;;;;;;21.09;42.41;100750.44;4984545;28;19928;-82
2021/01/09 09:51:18;;;;;;;;;;;;;;;21.56;38.50;100764.78;4975126;28;20008;-81
2021/01/09 09:53:53;;;;;;;;;;;;;;;22.16;35.77;100766.13;4979934;28;20300;-83
2021/01/09 09:56:24;;;;;;;;;;;;;;;22.88;36.43;100761.53;4977346;28;19932;-83
2021/01/09 09:59:01;;;;;;;;;;;;;;;23.51;32.57;100762.44;4963288;28;20297;-82
2021/01/09 10:01:31;;;;;;;;;;;;;;;24.14;29.50;100767.59;4959890;28;19926;-83
2021/01/09 10:04:01;;;;;;;;;;;;;;;24.62;26.24;100772.44;4987544;28;19929;-83
2021/01/09 10:06:34;;;;;;;;;;;;;;;24.25;24.86;100769.78;4984578;28;19922;-82
2021/01/09 10:09:11;;;;;;;;;;;;;;;24.21;23.12;100776.22;4984356;28;20300;-82
2021/01/09 10:11:37;;;;;;;;;;;;;;;24.92;21.82;100772.81;4968998;28;25548;-83
2021/01/09 10:14:20;;;;;;;;;;;;;;;25.08;19.92;100771.09;4977802;28;20455;-83
2021/01/09 10:16:52;;;;;;;;;;;;;;;24.74;20.91;100773.69;4984586;28;20360;-83
2021/01/09 10:19:19;;;;;;;;;;;;;;;24.85;20.95;100770.47;4955701;28;19976;-82
2021/01/09 10:21:46;;;;;;;;;;;;;;;24.66;20.27;100771.34;4954286;28;20025;-82
2021/01/09 10:24:13;;;;;;;;;;;;;;;23.87;19.87;100767.06;4966238;28;19947;-83
2021/01/09 10:26:40;;;;;;;;;;;;;;;22.14;21.86;100758.25;4979954;28;20004;-84
2021/01/09 10:29:07;;;;;;;;;;;;;;;21.84;21.86;100758.47;4974548;28;19943;-84
2021/01/09 10:31:35;;;;;;;;;;;;;;;23.03;21.15;100756.44;4971918;28;19926;-83
2021/01/09 10:34:07;;;;;;;;;;;;;;;22.29;21.19;100754.13;4976983;28;19925;-81
2021/01/09 10:36:35;;;;;;;;;;;;;;;23.80;20.17;100752.22;4947657;28;19969;-82
2021/01/09 10:39:02;;;;;;;;;;;;;;;22.80;21.12;100745.00;4990545;28;19925;-81
2021/01/09 10:41:29;;;;;;;;;;;;;;;23.28;21.31;100748.28;4974597;28;19930;-81
2021/01/09 10:44:15;;;;;;;;;;;;;;;24.25;19.96;100748.44;4978882;28;20396;-82
2021/01/09 10:46:42;;;;;;;;;;;;;;;24.15;20.87;100745.28;4979381;28;19972;-82
2021/01/09 10:49:08;;;;;;;;;;;;;;;25.07;20.44;100749.78;4984905;28;19932;-82
2021/01/09 10:51:35;;;;;;;;;;;;;;;25.88;20.11;100755.34;4970243;28;20827;-83
2021/01/09 10:54:04;;;;;;;;;;;;;;;25.73;19.04;100745.47;4986943;28;20393;-82
2021/01/09 10:56:31;;;;;;;;;;;;;;;26.34;18.80;100739.47;4960654;28;19932;-81
2021/01/09 10:58:58;;;;;;;;;;;;;;;26.19;18.95;100737.59;4985502;28;19936;-82
2021/01/09 11:01:25;;;;;;;;;;;;;;;26.00;20.54;100733.25;4972749;28;19937;-82
2021/01/09 11:03:51;;;;;;;;;;;;;;;26.86;19.38;100732.03;4989404;28;19949;-82
2021/01/09 11:06:21;;;;;;;;;;;;;;;26.93;20.73;100730.72;4981722;28;19980;-82
2021/01/09 11:08:48;;;;;;;;;;;;;;;27.39;19.03;100731.53;4966690;28;19932;-81
2021/01/09 11:11:15;;;;;;;;;;;;;;;27.45;19.34;100727.63;4989016;28;20387;-81
2021/01/09 11:13:42;;;;;;;;;;;;;;;27.65;17.25;100724.63;4958857;28;19944;-82
2021/01/09 11:16:08;;;;;;;;;;;;;;;27.59;19.55;100725.84;4971208;28;19922;-82
2021/01/09 11:18:35;;;;;;;;;;;;;;;27.20;20.40;100730.91;4982038;28;19929;-83
2021/01/09 11:21:01;;;;;;;;;;;;;;;27.99;18.33;100721.56;4958536;28;19922;-80
2021/01/09 11:23:27;;;;;;;;;;;;;;;28.42;17.89;100722.38;4976235;28;19926;-81
2021/01/09 11:25:54;;;;;;;;;;;;;;;28.74;17.49;100723.00;4981681;28;19925;-80
2021/01/09 11:28:22;;;;;;;;;;;;;;;28.85;18.26;100719.59;4984392;28;20377;-80
2021/01/09 11:30:48;;;;;;;;;;;;;;;28.23;20.31;100718.28;4967097;28;19922;-82
2021/01/09 11:33:17;;;;;;;;;;;;;;;27.95;19.43;100717.34;4938572;28;19930;-80
2021/01/09 11:35:44;;;;;;;;;;;;;;;28.56;18.96;100714.28;4945030;28;19922;-80
2021/01/09 11:38:21;;;;;;;;;;;;;;;27.66;18.48;100711.09;4933919;28;19989;-81
2021/01/09 11:40:49;;;;;;;;;;;;;;;28.15;18.72;100714.25;4983679;28;19922;-81
2021/01/09 11:43:15;;;;;;;;;;;;;;;27.58;18.77;100721.44;4972672;28;20024;-80
2021/01/09 11:45:44;;;;;;;;;;;;;;;27.91;19.20;100726.56;4976285;28;20032;-81
2021/01/09 11:48:16;;;;;;;;;;;;;;;26.97;19.97;100726.03;4984277;28;19925;-80
2021/01/09 11:50:44;;;;;;;;;;;;;;;25.19;20.66;100725.94;4929923;28;19952;-81
2021/01/09 11:53:30;;;;;;;;;;;;;;;;;;4934846;28;19922;-79
2021/01/09 11:55:57;;;;;;;;;;;;;;;22.82;24.84;100727.19;4927081;28;19930;-80
2021/01/09 12:01:33;;;;;;;;;;;;;;;22.06;24.59;100732.84;4947293;28;19932;-81
2021/01/09 12:04:15;;;;;;;;;;;;;;;22.04;26.04;100724.03;4937955;28;19926;-80
2021/01/09 12:06:45;;;;;;;;;;;;;;;20.12;28.25;100723.47;4942987;28;20378;-79
2021/01/09 12:09:12;;;;;;;;;;;;;;;20.58;27.91;100720.25;4958231;28;19922;-80
2021/01/09 12:11:41;;;;;;;;;;;;;;;21.41;25.06;100725.44;4977823;28;19922;-80
2021/01/09 12:14:07;;;;;;;;;;;;;;;20.18;25.54;100725.94;4955641;28;19925;-80
2021/01/09 12:16:34;;;;;;;;;;;;;;;18.65;28.21;100725.66;4968068;28;19931;-78
2021/01/09 12:19:01;;;;;;;;;;;;;;;16.78;32.60;100728.50;4951500;28;19922;-80
2021/01/09 12:21:31;;;;;;;;;;;;;;;15.58;33.49;100717.84;4952931;28;20002;-81
2021/01/09 12:23:58;;;;;;;;;;;;;;;14.37;36.20;100718.88;4968720;28;19929;-80
2021/01/09 12:26:25;;;;;;;;;;;;;;;14.22;35.99;100722.44;4955773;28;19922;-80
2021/01/09 12:28:51;;;;;;;;;;;;;;;13.15;37.28;100707.97;4980831;28;19934;-80
2021/01/09 12:31:18;;;;;;;;;;;;;;;11.69;41.11;100710.34;4972388;28;19922;-78
2021/01/09 12:34:05;;;;;;;;;;;;;;;10.14;45.42;100705.66;4970581;28;19957;-87
2021/01/09 12:36:32;;;;;;;;;;;;;;;9.80;46.75;100711.38;4975594;28;19948;-79
2021/01/09 12:39:00;;;;;;;;;;;;;;;9.64;47.67;100697.25;4974104;28;20009;-79
2021/01/09 12:41:32;;;;;;;;;;;;;;;9.74;47.56;100695.63;4946865;28;19922;-81
2021/01/09 12:43:59;;;;;;;;;;;;;;;8.38;50.72;100684.09;4969318;28;19944;-81
2021/01/09 12:46:33;;;;;;;;;;;;;;;9.38;49.09;100673.47;4986967;28;19922;-82
2021/01/09 12:48:59;;;;;;;;;;;;;;;9.91;48.06;100675.84;4984151;28;20525;-76
2021/01/09 12:51:25;;;;;;;;;;;;;;;9.62;50.44;100673.78;4989712;28;19998;-79
2021/01/09 12:54:03;;;;;;;;;;;;;;;9.54;49.89;100669.31;4969293;28;20025;-80